Brian Head, Utah
Current Conditions -  °F | °C
As of 6:53 AM on Wednesday 26 Nov 2014 (Local Time) from KCDC Reporting Station
Clear Clear  
Wind Chill: 25°   Ceiling: Unl
Heat Index: 25°   Visibility: 10mi
Dew Point: 19°   Wind: 3mph
Humidity: 78%   Direction: 150°SSE
Pressure: 30.41"   Gusts: NA
Location:  37.69°N, 112.85°W
Report Text: KCDC 261353Z AUTO 15003KT 10SM CLR M04/M07 A3041 RMK AO2 SLP315 T10391072
Loading
Personal Weather Stations






























Interactive Weather Map New forecast layout! Learn more

10-Day Weather Forecast

Advertisements
Track Severe Weather on mobile